Waarnemingen

Advertentie
Mijn weer
Isola Di Salina, Italië (16415): temperatuur & dauwpunt: 11.12.2017 01:00:00 - 17.12.2017 01:00:00 (CET)Isola Di Salina, Italië (16415): windsnelheid: 11.12.2017 01:00:00 - 17.12.2017 01:00:00 (CET)Isola Di Salina, Italië (16415): windrichting: 11.12.2017 01:00:00 - 17.12.2017 01:00:00 (CET)Isola Di Salina, Italië (16415): luchtdruk: 11.12.2017 01:00:00 - 17.12.2017 01:00:00 (CET)Isola Di Salina, Italië (16415): neerslag: 11.12.2017 01:00:00 - 17.12.2017 01:00:00 (CET)
Datum & Tijd tt [°C] td [°C] ff [km/u] ff [kn] dd ppp [hPa] rr [mm]
17.12.2017 01:00:00 - - - - - - -
17.12.2017 00:00:00 10,3 7,9 15 8 W 1011,8 -
16.12.2017 23:00:00 9,9 6,9 11 6 NNW 1012,0 -
16.12.2017 22:00:00 9,7 8,1 11 6 WZW 1011,8 -
16.12.2017 21:00:00 8,9 7,5 9 5 WZW 1011,7 -
16.12.2017 20:00:00 9,1 7,9 11 6 W 1011,6 -
16.12.2017 19:00:00 9,4 8,0 11 6 W 1011,3 -
16.12.2017 18:00:00 10,3 8,9 16 9 NW 1010,8 -
16.12.2017 17:00:00 10,6 5,7 18 10 W 1010,0 -
16.12.2017 16:00:00 12,7 5,3 24 13 NNW 1008,8 -
16.12.2017 15:00:00 12,9 7,9 29 16 NNW 1008,5 -
16.12.2017 14:00:00 13,3 8,3 26 14 NNW 1008,6 -
16.12.2017 13:00:00 13,7 9,1 16 9 NW 1008,3 0,0
16.12.2017 12:00:00 13,7 9,1 13 7 NW 1008,7 -
16.12.2017 11:00:00 13,7 10,7 11 6 NW 1009,0 -
16.12.2017 10:00:00 13,4 10,0 11 6 NW 1009,1 -
16.12.2017 09:00:00 13,3 10,6 18 10 NW 1008,4 -
16.12.2017 08:00:00 13,3 10,3 18 10 NW 1008,0 -
16.12.2017 07:00:00 13,4 9,8 18 10 WNW 1008,2 0,0
16.12.2017 06:00:00 13,8 10,4 18 10 W 1008,4 -
16.12.2017 05:00:00 15,0 10,2 22 12 W 1007,2 -
16.12.2017 04:00:00 15,7 8,1 15 8 NO 1007,7 -
16.12.2017 03:00:00 16,0 6,3 5 3 ZO 1007,5 -
16.12.2017 02:00:00 15,7 6,3 13 7 OZO 1007,2 -
16.12.2017 01:00:00 15,5 5,6 13 7 ZW 1007,7 0,0
16.12.2017 00:00:00 15,1 6,0 11 6 NNO 1008,6 -
15.12.2017 23:00:00 15,4 5,2 9 5 WZW 1008,9 -
15.12.2017 22:00:00 15,4 5,8 22 12 W 1009,1 -
15.12.2017 21:00:00 15,7 3,7 9 5 ZW 1008,6 -
15.12.2017 20:00:00 15,4 4,1 8 4 ZZW 1007,9 -
15.12.2017 19:00:00 13,8 2,6 5 3 Z 1008,1 0,0
15.12.2017 18:00:00 13,6 3,6 8 4 ZZW 1007,9 -
15.12.2017 17:00:00 13,9 4,7 11 6 Z 1008,3 -
15.12.2017 16:00:00 13,9 4,9 5 3 Z 1008,7 -
15.12.2017 15:00:00 15,1 6,6 9 5 W 1009,2 -
15.12.2017 14:00:00 16,7 7,8 11 6 Z 1009,8 -
15.12.2017 13:00:00 16,9 8,0 4 2 ZO 1010,7 0,0
15.12.2017 12:00:00 17,0 8,4 11 6 Z 1011,7 -
15.12.2017 11:00:00 15,7 7,1 13 7 Z 1013,2 -
15.12.2017 10:00:00 15,3 8,0 11 6 ZW 1013,6 -
15.12.2017 09:00:00 13,7 8,7 9 5 Z 1013,8 -
15.12.2017 08:00:00 11,9 8,9 9 5 ZZW 1014,2 -
15.12.2017 07:00:00 11,2 5,7 5 3 ZW 1014,5 0,0
15.12.2017 06:00:00 11,5 5,7 5 3 ZZW 1014,7 -
15.12.2017 05:00:00 12,0 6,2 4 2 ZW 1015,1 -
15.12.2017 04:00:00 11,6 5,4 8 4 W 1016,0 -
15.12.2017 03:00:00 11,7 6,1 11 6 W 1016,8 -
15.12.2017 02:00:00 12,2 7,2 9 5 WZW 1017,1 -
15.12.2017 01:00:00 12,2 7,2 13 7 W 1017,5 0,0
15.12.2017 00:00:00 12,4 7,2 5 3 W 1017,9 -
14.12.2017 23:00:00 12,9 7,1 5 3 WZW 1017,8 -
14.12.2017 22:00:00 13,2 8,2 13 7 NW 1018,0 -
14.12.2017 21:00:00 13,4 7,6 4 2 W 1018,1 -
14.12.2017 20:00:00 13,5 6,3 13 7 WNW 1018,3 -
14.12.2017 19:00:00 13,0 7,0 21 11 W 1018,6 0,0
14.12.2017 18:00:00 12,9 7,3 21 11 W 1018,7 -
14.12.2017 17:00:00 12,9 7,9 22 12 WNW 1018,9 -
14.12.2017 16:00:00 13,0 7,8 13 7 W 1019,4 -
14.12.2017 15:00:00 12,8 7,2 13 7 W 1019,8 -
14.12.2017 14:00:00 12,8 7,2 13 7 NNW 1020,3 -
14.12.2017 13:00:00 12,9 7,3 8 4 ZW 1020,8 0,0
14.12.2017 12:00:00 12,8 6,3 11 6 WNW 1021,2 -
14.12.2017 11:00:00 12,8 6,3 13 7 WNW 1021,6 -
14.12.2017 10:00:00 12,7 5,8 15 8 WNW 1022,0 -
14.12.2017 09:00:00 12,1 5,0 15 8 W 1021,8 -
14.12.2017 08:00:00 11,4 3,8 13 7 WZW 1021,7 -
14.12.2017 07:00:00 11,0 3,5 15 8 WZW 1022,0 -
14.12.2017 06:00:00 11,3 4,7 13 7 W 1021,5 -
14.12.2017 05:00:00 11,5 5,1 13 7 W 1021,3 -
14.12.2017 04:00:00 11,9 6,5 21 11 W 1021,6 -
14.12.2017 03:00:00 12,3 8,9 18 10 WNW 1021,5 -
14.12.2017 02:00:00 12,1 9,8 16 9 WNW 1021,2 -
14.12.2017 01:00:00 11,5 9,9 13 7 WNW 1021,4 -
14.12.2017 00:00:00 11,6 10,2 16 9 W 1021,8 -
13.12.2017 23:00:00 12,5 11,1 15 8 WNW 1022,1 -
13.12.2017 22:00:00 12,9 11,6 18 10 NW 1022,0 -
13.12.2017 21:00:00 12,6 11,2 18 10 WNW 1022,0 -
13.12.2017 20:00:00 12,7 11,3 18 10 W 1021,8 -
13.12.2017 19:00:00 13,0 10,1 24 13 W 1021,7 0,0
13.12.2017 18:00:00 13,8 11,3 21 11 WNW 1021,0 -
13.12.2017 17:00:00 13,9 10,5 15 8 WNW 1020,9 -
13.12.2017 16:00:00 14,2 12,6 22 12 NW 1021,0 -
13.12.2017 15:00:00 14,8 13,3 18 10 WNW 1020,7 -
13.12.2017 14:00:00 16,5 11,8 16 9 WNW 1020,7 -
13.12.2017 13:00:00 16,2 10,5 16 9 NW 1020,9 0,0
13.12.2017 12:00:00 17,4 9,2 15 8 W 1021,6 -
13.12.2017 11:00:00 15,8 10,1 9 5 WNW 1021,9 -
13.12.2017 10:00:00 16,2 9,1 4 2 NW 1021,8 -
13.12.2017 09:00:00 17,2 12,3 5 3 Z 1021,2 -
13.12.2017 08:00:00 15,2 7,7 8 4 Z 1021,0 -
13.12.2017 07:00:00 14,1 7,1 8 4 ZZW 1020,9 0,0
13.12.2017 06:00:00 13,6 7,5 2 1 NW 1020,6 -
13.12.2017 05:00:00 13,9 8,0 5 3 NNW 1020,0 -
13.12.2017 04:00:00 13,6 12,0 11 6 NW 1020,1 -
13.12.2017 03:00:00 13,3 7,7 11 6 NW 1019,8 -
13.12.2017 02:00:00 13,7 4,7 0 0 N 1019,7 -
13.12.2017 01:00:00 13,6 8,2 0 0 N 1019,6 0,0
13.12.2017 00:00:00 13,8 8,4 0 0 N 1019,8 -
12.12.2017 23:00:00 14,9 6,4 2 1 Z 1019,7 -
12.12.2017 22:00:00 15,1 6,0 5 3 Z 1019,5 -
12.12.2017 21:00:00 14,3 6,8 5 3 ZZW 1019,5 -
12.12.2017 20:00:00 14,7 7,4 0 0 N 1019,4 -
12.12.2017 19:00:00 14,8 6,3 5 3 ZZW 1018,9 0,0
12.12.2017 18:00:00 14,7 7,2 8 4 Z 1018,4 -
12.12.2017 17:00:00 15,0 8,6 9 5 N 1017,8 -
12.12.2017 16:00:00 15,7 7,4 9 5 Z 1018,0 -
12.12.2017 15:00:00 16,8 8,7 9 5 Z 1017,9 -
12.12.2017 14:00:00 17,7 9,0 2 1 ONO 1017,9 -
12.12.2017 13:00:00 17,5 7,5 0 0 N 1017,6 0,0
12.12.2017 12:00:00 19,1 13,4 5 3 Z 1017,8 -
12.12.2017 11:00:00 18,2 11,9 8 4 ZZO 1018,1 -
12.12.2017 10:00:00 17,6 11,8 8 4 Z 1017,9 -
12.12.2017 09:00:00 15,6 13,9 0 0 N 1017,6 -
12.12.2017 08:00:00 13,2 11,2 0 0 N 1017,3 -
12.12.2017 07:00:00 13,6 11,5 0 0 N 1016,7 0,0
12.12.2017 06:00:00 13,6 11,5 9 5 WNW 1015,8 -
12.12.2017 05:00:00 13,6 9,4 11 6 NW 1015,6 -
12.12.2017 04:00:00 14,1 7,8 11 6 WNW 1014,8 -
12.12.2017 03:00:00 13,4 6,2 8 4 WNW 1014,7 -
12.12.2017 02:00:00 13,0 4,9 2 1 NO 1014,1 -
12.12.2017 01:00:00 12,7 4,3 8 4 WNW 1013,7 0,0
12.12.2017 00:00:00 13,1 5,2 4 2 W 1013,8 -
11.12.2017 23:00:00 13,7 6,0 0 0 N 1013,7 -
11.12.2017 22:00:00 14,0 6,8 5 3 ZW 1013,7 -
11.12.2017 21:00:00 13,4 8,0 0 0 N 1013,6 -
11.12.2017 20:00:00 13,9 7,4 4 2 W 1013,7 -
11.12.2017 19:00:00 14,3 8,6 4 2 ONO 1014,0 0,0
11.12.2017 18:00:00 13,5 6,5 5 3 WNW 1013,6 -
11.12.2017 17:00:00 14,0 7,2 4 2 NW 1013,4 -
11.12.2017 16:00:00 15,2 9,3 0 0 N 1013,0 -
11.12.2017 15:00:00 16,2 9,8 2 1 ZO 1012,9 -
11.12.2017 14:00:00 16,5 11,4 16 9 ZO 1013,0 -
11.12.2017 13:00:00 16,2 11,3 21 11 ZO 1014,0 0,0
11.12.2017 12:00:00 16,5 11,2 13 7 ZO 1015,1 -
11.12.2017 11:00:00 15,9 10,4 15 8 WZW 1015,8 -
11.12.2017 10:00:00 15,1 10,0 15 8 ZO 1016,2 -
11.12.2017 09:00:00 13,7 9,1 16 9 ZO 1016,2 -
11.12.2017 08:00:00 12,0 6,8 15 8 ZZO 1016,0 -
11.12.2017 07:00:00 11,1 5,1 15 8 Z 1016,3 0,0
11.12.2017 06:00:00 10,7 4,5 16 9 Z 1016,3 -
11.12.2017 05:00:00 9,9 4,8 13 7 Z 1016,9 -
11.12.2017 04:00:00 9,5 4,2 5 3 ZZO 1017,9 -
11.12.2017 03:00:00 9,2 3,5 2 1 Z 1018,2 -
11.12.2017 02:00:00 9,0 3,8 0 0 N 1018,4 -
11.12.2017 01:00:00 9,4 4,3 8 4 WZW 1018,6 0,0

tt = temperatuur
td = dauwpunt
ff = windsnelheid
dd = windrichting
ppp = luchtdruk
rr = neerslag

Weerstations in de omgeving